Weather at London Gatwick Airport

Public forecast

Using degrees Celsius for public forecast. Weather courtesy of forecast.io.

Current aviation weather report (METAR) for London Gatwick Airport

Retrieved 2021/07/29 05:20 UTC (35 minutes ago):

EGKK 290520Z 23007KT CAVOK 13/11 Q1010

Aviation forecast (TAF) for London Gatwick Airport

Retrieved 2021-07-29 00:00 UTC (6 hours ago):

TAF EGKK 282251Z 2900/3006 23010KT 9999 FEW035 BECMG 2921/2924 17009KT PROB30 TEMPO 2922/3002 7000 RA TEMPO 3002/3006 6000 RA BKN010